createdAt,value
2022-11-28T00:01:39.206Z,48.03
2022-11-28T00:04:07.645Z,45.90
2022-11-28T00:06:39.674Z,45.30
2022-11-28T00:09:08.643Z,42.30
2022-11-28T00:11:36.356Z,45.63
2022-11-28T00:14:03.935Z,44.83
2022-11-28T00:16:31.514Z,47.23
2022-11-28T00:19:01.465Z,48.27
2022-11-28T00:21:30.997Z,44.50
2022-11-28T00:23:59.473Z,45.67
2022-11-28T00:26:35.351Z,43.53
2022-11-28T00:29:04.664Z,46.97
2022-11-28T00:31:36.135Z,41.27
2022-11-28T00:34:03.704Z,43.47
2022-11-28T00:36:31.658Z,45.50
2022-11-28T00:38:59.102Z,44.97
2022-11-28T00:41:31.176Z,43.20
2022-11-28T00:43:58.786Z,43.07
2022-11-28T00:46:26.781Z,47.37
2022-11-28T00:48:54.384Z,45.10
2022-11-28T00:51:26.735Z,48.13
2022-11-28T00:53:57.597Z,43.47
2022-11-28T00:56:29.022Z,46.93
2022-11-28T00:58:57.229Z,46.23
2022-11-28T01:01:31.471Z,44.27
2022-11-28T01:04:04.021Z,47.87
2022-11-28T01:06:39.617Z,45.63
2022-11-28T01:09:12.041Z,46.17
2022-11-28T01:11:41.146Z,46.40
2022-11-28T01:14:11.120Z,50.23
2022-11-28T01:16:39.674Z,48.70
2022-11-28T01:19:07.612Z,44.93
2022-11-28T01:21:35.914Z,44.37
2022-11-28T01:24:03.626Z,45.13
2022-11-28T01:26:32.070Z,46.60
2022-11-28T01:29:01.252Z,47.27
2022-11-28T01:31:30.287Z,45.50
2022-11-28T01:33:58.655Z,46.13
2022-11-28T01:36:27.485Z,46.23
2022-11-28T01:38:55.281Z,43.77
2022-11-28T01:41:26.765Z,46.53
2022-11-28T01:44:32.386Z,44.03
2022-11-28T01:46:59.823Z,42.13
2022-11-28T01:49:36.087Z,45.13
2022-11-28T01:52:13.291Z,43.10
2022-11-28T01:54:43.518Z,42.40
2022-11-28T01:57:24.214Z,42.80
2022-11-28T02:00:09.385Z,40.83
2022-11-28T02:03:06.024Z,40.60
2022-11-28T02:05:33.998Z,41.40
2022-11-28T02:08:02.236Z,40.77
2022-11-28T02:11:01.344Z,41.37
2022-11-28T02:13:54.783Z,39.97
2022-11-28T02:16:46.616Z,40.20
2022-11-28T02:19:58.060Z,41.53
2022-11-28T02:23:02.286Z,41.80
2022-11-28T02:26:06.470Z,41.23
2022-11-28T02:29:24.542Z,38.97
2022-11-28T02:32:56.944Z,40.50
2022-11-28T02:35:48.511Z,39.73
2022-11-28T02:38:27.878Z,39.70
2022-11-28T02:41:01.353Z,39.83
2022-11-28T02:43:43.198Z,42.40
2022-11-28T02:46:56.855Z,37.90
2022-11-28T02:49:34.959Z,40.93
2022-11-28T02:52:18.340Z,39.90
2022-11-28T02:54:46.933Z,37.50
2022-11-28T02:57:14.362Z,36.53
2022-11-28T02:59:41.781Z,37.57
2022-11-28T03:02:29.136Z,37.97
2022-11-28T03:05:17.566Z,38.40
2022-11-28T03:08:31.527Z,37.27
2022-11-28T03:11:33.735Z,37.03
2022-11-28T03:14:45.336Z,40.40
2022-11-28T03:17:26.811Z,36.63
2022-11-28T03:20:13.644Z,37.13
2022-11-28T03:23:17.993Z,35.67
2022-11-28T03:25:55.133Z,34.43
2022-11-28T03:28:43.623Z,33.33
2022-11-28T03:31:18.966Z,36.47
2022-11-28T03:33:53.739Z,35.43
2022-11-28T03:36:31.710Z,36.60
2022-11-28T03:39:07.048Z,35.97
2022-11-28T03:41:49.499Z,34.57
2022-11-28T03:44:23.474Z,34.10
2022-11-28T03:46:52.288Z,32.13
2022-11-28T03:49:29.655Z,33.27
2022-11-28T03:52:05.476Z,33.47
2022-11-28T03:55:02.165Z,33.63
2022-11-28T03:58:21.160Z,29.40
2022-11-28T04:01:35.812Z,32.43
2022-11-28T04:04:20.645Z,31.60
2022-11-28T04:07:20.407Z,31.67
2022-11-28T04:10:13.610Z,31.33
2022-11-28T04:13:07.807Z,30.63
2022-11-28T04:15:54.261Z,30.53
2022-11-28T04:18:31.616Z,32.03
2022-11-28T04:21:26.351Z,29.93
2022-11-28T04:24:00.032Z,37.27
2022-11-28T04:26:39.208Z,48.10
2022-11-28T04:29:13.039Z,36.73
2022-11-28T04:31:43.242Z,42.10
2022-11-28T04:34:16.102Z,62.27
2022-11-28T04:36:45.387Z,53.37
2022-11-28T04:39:18.949Z,46.50
2022-11-28T04:41:58.875Z,37.77
2022-11-28T04:44:28.906Z,41.10
2022-11-28T04:46:57.980Z,38.83
2022-11-28T04:49:27.823Z,35.60
2022-11-28T04:52:42.096Z,33.67
2022-11-28T04:55:38.568Z,36.43
2022-11-28T04:58:31.341Z,28.50
2022-11-28T05:01:00.646Z,33.43
2022-11-28T05:03:29.596Z,31.27
2022-11-28T05:05:57.151Z,35.40
2022-11-28T05:08:25.326Z,41.50
2022-11-28T05:10:52.774Z,41.57
2022-11-28T05:13:20.343Z,40.73
2022-11-28T05:15:47.831Z,36.77
2022-11-28T05:18:15.303Z,42.23
2022-11-28T05:20:43.712Z,35.57
2022-11-28T05:23:11.284Z,40.03
2022-11-28T05:25:40.256Z,34.30
2022-11-28T05:28:08.989Z,38.20
2022-11-28T05:30:36.471Z,33.20
2022-11-28T05:33:04.023Z,34.90
2022-11-28T05:35:31.834Z,35.60
2022-11-28T05:37:59.226Z,37.20
2022-11-28T05:40:26.686Z,41.53
2022-11-28T05:42:54.204Z,36.77
2022-11-28T05:45:21.686Z,38.67
2022-11-28T05:47:49.164Z,49.03
2022-11-28T05:50:16.660Z,59.47
2022-11-28T05:52:44.152Z,58.43
2022-11-28T05:55:11.614Z,52.27
2022-11-28T05:57:39.047Z,33.77
2022-11-28T06:00:07.539Z,34.87
2022-11-28T06:02:36.686Z,31.57
2022-11-28T06:05:27.258Z,37.30
2022-11-28T06:07:52.162Z,34.10
2022-11-28T06:10:21.730Z,46.37
2022-11-28T06:12:49.773Z,68.40
2022-11-28T06:15:17.331Z,58.60
2022-11-28T06:17:44.730Z,48.27
2022-11-28T06:20:12.436Z,64.67
2022-11-28T06:22:39.829Z,59.30
2022-11-28T06:25:07.363Z,49.10
2022-11-28T06:27:35.682Z,56.07
2022-11-28T06:30:03.119Z,56.80
2022-11-28T06:32:30.542Z,49.80
2022-11-28T06:34:57.966Z,52.03
2022-11-28T06:37:25.484Z,46.53
2022-11-28T06:39:52.954Z,44.30
2022-11-28T06:42:20.408Z,51.20
2022-11-28T06:44:47.783Z,40.00
2022-11-28T06:47:15.281Z,40.67
2022-11-28T06:49:43.058Z,41.67
2022-11-28T06:52:10.624Z,48.10
2022-11-28T06:54:37.987Z,42.00
2022-11-28T06:57:05.507Z,39.40
2022-11-28T06:59:32.990Z,38.53
2022-11-28T07:02:07.189Z,38.57
2022-11-28T07:04:34.904Z,37.17
2022-11-28T07:07:02.325Z,36.67
2022-11-28T07:09:29.953Z,34.93
2022-11-28T07:11:57.476Z,41.10
2022-11-28T07:14:24.924Z,41.60
2022-11-28T07:16:52.481Z,41.00
2022-11-28T07:19:23.326Z,36.83
2022-11-28T07:21:51.092Z,36.17
2022-11-28T07:24:19.703Z,40.53
2022-11-28T07:26:47.587Z,40.07
2022-11-28T07:29:18.478Z,38.27
2022-11-28T07:31:46.471Z,38.27
2022-11-28T07:34:14.151Z,36.80
2022-11-28T07:36:41.541Z,37.13
2022-11-28T07:39:13.130Z,34.70
2022-11-28T07:41:40.549Z,36.30
2022-11-28T07:44:07.978Z,37.17
2022-11-28T07:46:35.551Z,33.87
2022-11-28T07:49:04.535Z,34.67
2022-11-28T07:51:33.999Z,33.60
2022-11-28T07:54:02.689Z,33.13
2022-11-28T07:59:21.592Z,36.90
2022-11-28T08:01:49.139Z,35.13
2022-11-28T08:04:16.645Z,35.23
2022-11-28T08:06:44.559Z,34.50
2022-11-28T08:09:12.302Z,34.70
2022-11-28T08:11:40.557Z,37.87
2022-11-28T08:14:08.061Z,32.70
2022-11-28T08:16:37.097Z,45.07
2022-11-28T08:19:04.712Z,43.90
2022-11-28T08:21:34.553Z,39.27
2022-11-28T08:24:03.949Z,48.93
2022-11-28T08:26:33.158Z,40.67
2022-11-28T08:29:02.606Z,33.57
2022-11-28T08:31:33.825Z,32.57
2022-11-28T08:34:05.549Z,35.70
2022-11-28T08:36:33.058Z,34.53
2022-11-28T08:39:22.270Z,33.57
2022-11-28T08:41:50.122Z,37.43
2022-11-28T08:44:17.706Z,34.77
2022-11-28T08:46:45.138Z,36.07
2022-11-28T08:49:12.705Z,34.77
2022-11-28T08:51:40.299Z,36.23
2022-11-28T08:54:07.717Z,32.67
2022-11-28T08:56:35.326Z,34.60
2022-11-28T08:59:03.536Z,35.90
2022-11-28T09:01:31.237Z,33.13
2022-11-28T09:03:58.848Z,35.20
2022-11-28T09:06:26.452Z,33.97
2022-11-28T09:08:54.255Z,34.80
2022-11-28T09:11:23.339Z,34.03
2022-11-28T09:13:51.262Z,36.00
2022-11-28T09:16:18.981Z,32.87
2022-11-28T09:18:46.492Z,35.37
2022-11-28T09:21:15.668Z,34.97
2022-11-28T09:23:45.085Z,34.40
2022-11-28T09:26:18.656Z,36.70
2022-11-28T09:28:49.152Z,35.83
2022-11-28T09:31:18.590Z,38.13
2022-11-28T09:33:48.465Z,34.53
2022-11-28T09:36:20.665Z,31.80
2022-11-28T09:38:49.373Z,32.83
2022-11-28T09:41:28.804Z,29.97
2022-11-28T09:44:25.304Z,30.50
2022-11-28T09:47:02.723Z,31.97
2022-11-28T09:49:43.731Z,30.30
2022-11-28T09:52:51.493Z,31.87
2022-11-28T09:55:57.076Z,30.07
2022-11-28T09:59:03.178Z,29.43
2022-11-28T10:01:59.205Z,29.47
2022-11-28T10:04:42.552Z,31.03
2022-11-28T10:07:27.457Z,28.13
2022-11-28T10:10:27.743Z,28.37
2022-11-28T10:13:53.574Z,30.70
2022-11-28T10:16:42.338Z,27.83
2022-11-28T10:19:31.902Z,28.47
2022-11-28T10:22:08.449Z,29.47
2022-11-28T10:24:53.144Z,27.03
2022-11-28T10:27:26.786Z,28.27
2022-11-28T10:30:08.820Z,26.73
2022-11-28T10:32:41.600Z,26.97
2022-11-28T10:35:49.245Z,28.73
2022-11-28T10:38:19.336Z,28.80
2022-11-28T10:41:16.266Z,24.77
2022-11-28T10:44:06.252Z,27.67
2022-11-28T10:47:01.148Z,24.53
2022-11-28T10:50:00.997Z,25.93
2022-11-28T10:53:06.699Z,26.07
2022-11-28T10:56:23.380Z,24.23
2022-11-28T10:58:50.725Z,24.47
2022-11-28T11:01:18.235Z,24.47
2022-11-28T11:03:45.757Z,23.40
2022-11-28T11:06:13.199Z,25.03
2022-11-28T11:08:41.889Z,22.90
2022-11-28T11:11:35.087Z,22.53
2022-11-28T11:14:04.618Z,23.33
2022-11-28T11:16:54.685Z,23.20
2022-11-28T11:19:34.812Z,23.50
2022-11-28T11:22:28.548Z,22.63
2022-11-28T11:25:17.208Z,23.67
2022-11-28T11:27:54.617Z,23.57
2022-11-28T11:30:38.844Z,22.83
2022-11-28T11:33:16.210Z,24.00
2022-11-28T11:35:48.464Z,25.97
2022-11-28T11:38:20.686Z,24.57
2022-11-28T11:40:52.597Z,23.97
2022-11-28T11:43:26.164Z,23.73
2022-11-28T11:46:11.611Z,24.27
2022-11-28T11:48:46.176Z,19.70
2022-11-28T11:51:28.099Z,17.23
2022-11-28T11:54:26.191Z,20.40
2022-11-28T11:57:11.314Z,19.67
2022-11-28T11:59:49.719Z,21.37
2022-11-28T12:02:54.427Z,23.53
2022-11-28T12:05:52.435Z,18.47
2022-11-28T12:08:53.185Z,19.47
2022-11-28T12:11:32.495Z,19.93
2022-11-28T12:14:20.745Z,20.23
2022-11-28T12:17:00.701Z,20.03
2022-11-28T12:19:52.763Z,19.57
2022-11-28T12:22:39.712Z,18.00
2022-11-28T12:25:21.456Z,17.57
2022-11-28T12:28:13.486Z,17.13
2022-11-28T12:31:06.080Z,18.87
2022-11-28T12:33:42.598Z,21.63
2022-11-28T12:36:29.506Z,17.53
2022-11-28T12:39:15.586Z,18.60
2022-11-28T12:42:01.851Z,20.93
2022-11-28T12:44:57.282Z,20.13
2022-11-28T12:48:11.846Z,16.83
2022-11-28T12:51:11.432Z,17.50
2022-11-28T12:53:54.500Z,19.23
2022-11-28T12:56:53.283Z,21.20
2022-11-28T12:59:44.333Z,23.30
2022-11-28T13:02:52.438Z,30.17
2022-11-28T13:05:34.942Z,21.27
2022-11-28T13:08:41.942Z,18.20
2022-11-28T13:11:40.340Z,17.10
2022-11-28T13:14:41.062Z,16.17
2022-11-28T13:17:41.735Z,16.43
2022-11-28T13:21:21.558Z,17.70
2022-11-28T13:24:22.760Z,14.87
2022-11-28T13:27:00.543Z,15.47
2022-11-28T13:29:51.121Z,15.07
2022-11-28T13:32:38.078Z,15.83
2022-11-28T13:35:10.643Z,15.40
2022-11-28T13:41:06.666Z,18.83
2022-11-28T13:44:24.134Z,16.97
2022-11-28T13:46:51.830Z,17.70
2022-11-28T13:49:27.887Z,17.53
2022-11-28T13:52:21.830Z,18.03
2022-11-28T13:54:54.543Z,18.70
2022-11-28T13:57:28.251Z,18.90
2022-11-28T14:00:22.710Z,18.20
2022-11-28T14:03:00.192Z,24.10
2022-11-28T14:05:38.771Z,20.07
2022-11-28T14:08:07.610Z,19.07
2022-11-28T14:10:58.314Z,18.47
2022-11-28T14:13:56.150Z,20.27
2022-11-28T14:16:52.190Z,17.43
2022-11-28T14:19:50.573Z,17.83
2022-11-28T14:22:39.876Z,19.37
2022-11-28T14:25:21.100Z,20.43
2022-11-28T14:27:57.330Z,18.47
2022-11-28T14:30:45.922Z,20.07
2022-11-28T14:33:24.561Z,19.40
2022-11-28T14:35:54.709Z,17.37
2022-11-28T14:38:31.133Z,20.17
2022-11-28T14:41:15.220Z,16.80
2022-11-28T14:43:47.424Z,16.57
2022-11-28T14:46:23.936Z,15.97
2022-11-28T14:49:00.647Z,17.17
2022-11-28T14:51:48.951Z,20.53
2022-11-28T14:54:36.710Z,17.40
2022-11-28T14:57:36.225Z,20.20
2022-11-28T15:00:19.260Z,20.40
2022-11-28T15:03:04.731Z,19.90
2022-11-28T15:05:56.406Z,20.40
2022-11-28T15:08:34.701Z,37.07
2022-11-28T15:11:40.133Z,39.33
2022-11-28T15:14:23.907Z,40.07
2022-11-28T15:16:56.773Z,34.43
2022-11-28T15:19:46.138Z,28.77
2022-11-28T15:22:43.401Z,23.70
2022-11-28T15:25:26.971Z,23.70
2022-11-28T15:27:55.609Z,23.83
2022-11-28T15:30:28.777Z,22.30
2022-11-28T15:33:00.903Z,21.77
2022-11-28T15:35:29.410Z,20.70
2022-11-28T15:37:59.907Z,23.27
2022-11-28T15:40:35.383Z,23.13
2022-11-28T15:43:09.496Z,24.10
2022-11-28T15:45:42.453Z,22.73
2022-11-28T15:48:51.015Z,22.37
2022-11-28T15:51:33.669Z,22.60
2022-11-28T15:54:03.550Z,19.83
2022-11-28T15:56:31.285Z,21.67
2022-11-28T15:58:58.811Z,20.40
2022-11-28T16:01:28.072Z,24.00
2022-11-28T16:04:04.303Z,21.17
2022-11-28T16:06:35.961Z,21.63
2022-11-28T16:09:27.898Z,23.27
2022-11-28T16:11:56.029Z,21.67
2022-11-28T16:14:36.457Z,21.60
2022-11-28T16:17:15.692Z,23.47
2022-11-28T16:19:44.995Z,20.93
2022-11-28T16:22:22.379Z,21.87
2022-11-28T16:25:00.261Z,27.53
2022-11-28T16:27:38.467Z,30.70
2022-11-28T16:30:33.605Z,23.93
2022-11-28T16:33:01.298Z,23.20
2022-11-28T16:35:40.612Z,25.00
2022-11-28T16:38:23.965Z,26.77
2022-11-28T16:40:52.520Z,24.67
2022-11-28T16:43:38.749Z,25.23
2022-11-28T16:46:15.846Z,25.70
2022-11-28T16:48:54.307Z,25.53
2022-11-28T16:51:21.622Z,25.90
2022-11-28T16:53:50.703Z,27.27
2022-11-28T16:56:44.691Z,29.07
2022-11-28T16:59:21.343Z,29.13
2022-11-28T17:01:53.298Z,25.67
2022-11-28T17:04:27.144Z,25.07
2022-11-28T17:06:57.847Z,24.00
2022-11-28T17:09:25.521Z,24.77
2022-11-28T17:11:58.585Z,24.30
2022-11-28T17:14:26.313Z,26.27
2022-11-28T17:16:53.748Z,26.33
2022-11-28T17:19:21.305Z,25.43
2022-11-28T17:21:58.629Z,29.30
2022-11-28T17:24:34.068Z,25.43
2022-11-28T17:27:01.579Z,22.97
2022-11-28T17:29:29.466Z,22.90
2022-11-28T17:31:59.039Z,23.97
2022-11-28T17:34:32.661Z,26.33
2022-11-28T17:37:01.891Z,25.20
2022-11-28T17:39:29.951Z,27.47
2022-11-28T17:41:58.845Z,25.43
2022-11-28T17:44:33.071Z,26.50
2022-11-28T17:47:02.332Z,24.27
2022-11-28T17:49:33.480Z,26.83
2022-11-28T17:52:00.974Z,26.33
2022-11-28T17:54:28.775Z,28.60
2022-11-28T17:56:56.481Z,26.50
2022-11-28T17:59:25.148Z,29.57
2022-11-28T18:01:52.899Z,28.77
2022-11-28T18:04:21.646Z,28.13
2022-11-28T18:06:49.219Z,33.43
2022-11-28T18:09:16.698Z,29.53
2022-11-28T18:11:46.460Z,28.70
2022-11-28T18:14:14.345Z,28.27
2022-11-28T18:16:44.059Z,25.73
2022-11-28T18:19:11.863Z,26.93
2022-11-28T18:21:39.348Z,28.43
2022-11-28T18:24:07.273Z,26.67
2022-11-28T18:26:36.149Z,29.27
2022-11-28T18:29:04.428Z,28.00
2022-11-28T18:31:31.863Z,28.87
2022-11-28T18:34:05.511Z,28.27
2022-11-28T18:36:35.212Z,27.60
2022-11-28T18:39:06.810Z,26.67
2022-11-28T18:41:34.386Z,25.07
2022-11-28T18:44:04.973Z,24.77
2022-11-28T18:46:34.214Z,25.60
2022-11-28T18:49:01.949Z,27.43
2022-11-28T18:51:33.071Z,30.20
2022-11-28T18:54:04.578Z,27.70
2022-11-28T18:56:32.255Z,26.60
2022-11-28T18:58:59.838Z,25.07
2022-11-28T19:01:31.868Z,27.03
2022-11-28T19:04:06.541Z,28.30
2022-11-28T19:06:39.920Z,25.77
2022-11-28T19:09:11.602Z,28.47
2022-11-28T19:11:40.091Z,25.70
2022-11-28T19:14:08.541Z,26.43
2022-11-28T19:16:38.109Z,25.33
2022-11-28T19:19:06.857Z,26.57
2022-11-28T19:21:36.563Z,28.03
2022-11-28T19:24:05.300Z,27.53
2022-11-28T19:26:34.218Z,27.37
2022-11-28T19:29:02.814Z,26.43
2022-11-28T19:31:33.669Z,28.73
2022-11-28T19:34:13.613Z,25.90
2022-11-28T19:36:51.173Z,30.70
2022-11-28T19:39:19.945Z,42.93
2022-11-28T19:41:47.946Z,39.13
2022-11-28T19:44:15.740Z,32.40
2022-11-28T19:46:43.743Z,32.20
2022-11-28T19:49:20.344Z,29.97
2022-11-28T19:51:48.916Z,27.90
2022-11-28T19:54:19.832Z,29.90
2022-11-28T19:56:48.330Z,29.40
2022-11-28T19:59:16.479Z,27.10
2022-11-28T20:01:44.482Z,27.23
2022-11-28T20:04:12.311Z,30.57
2022-11-28T20:06:39.774Z,27.10
2022-11-28T20:09:10.630Z,27.60
2022-11-28T20:11:38.310Z,28.93
2022-11-28T20:14:19.758Z,27.93
2022-11-28T20:16:47.536Z,28.30
2022-11-28T20:19:15.237Z,32.77
2022-11-28T20:21:42.680Z,31.20
2022-11-28T20:24:11.005Z,27.50
2022-11-28T20:26:42.231Z,26.50
2022-11-28T20:29:14.832Z,25.77
2022-11-28T20:31:45.967Z,28.17
2022-11-28T20:34:15.468Z,27.97
2022-11-28T20:36:43.927Z,27.67
2022-11-28T20:39:13.035Z,27.07
2022-11-28T20:41:40.548Z,26.10
2022-11-28T20:44:08.444Z,34.67
2022-11-28T20:46:36.001Z,36.63
2022-11-28T20:49:07.515Z,54.43
2022-11-28T20:51:36.353Z,38.57
2022-11-28T20:54:06.177Z,53.20
2022-11-28T20:57:05.173Z,49.03
2022-11-28T20:59:26.825Z,43.53
2022-11-28T21:01:54.695Z,45.20
2022-11-28T21:04:22.216Z,38.70
2022-11-28T21:06:49.773Z,42.33
2022-11-28T21:09:20.221Z,46.37
2022-11-28T21:12:04.866Z,43.80
2022-11-28T21:14:32.328Z,42.07
2022-11-28T21:16:59.890Z,46.07
2022-11-28T21:19:27.535Z,44.90
2022-11-28T21:21:55.027Z,36.33
2022-11-28T21:24:22.508Z,34.30
2022-11-28T21:26:53.918Z,39.73
2022-11-28T21:29:23.793Z,41.50
2022-11-28T21:31:52.347Z,43.03
2022-11-28T21:34:19.950Z,44.83
2022-11-28T21:36:47.705Z,41.13
2022-11-28T21:39:20.154Z,49.33
2022-11-28T21:41:48.382Z,48.10
2022-11-28T21:44:15.902Z,41.57
2022-11-28T21:46:43.481Z,50.20
2022-11-28T21:49:11.156Z,50.13
2022-11-28T21:51:39.648Z,44.70
2022-11-28T21:54:07.033Z,53.63
2022-11-28T21:56:34.535Z,49.30
2022-11-28T21:59:01.963Z,43.20
2022-11-28T22:01:29.558Z,42.33
2022-11-28T22:04:02.357Z,40.13
2022-11-28T22:06:30.913Z,40.80
2022-11-28T22:08:58.880Z,38.87
2022-11-28T22:11:26.272Z,35.70
2022-11-28T22:13:53.895Z,35.43
2022-11-28T22:16:25.637Z,37.17
2022-11-28T22:18:55.867Z,41.27
2022-11-28T22:24:11.029Z,33.73
2022-11-28T22:26:38.559Z,35.30
2022-11-28T22:29:06.090Z,33.63
2022-11-28T22:31:33.761Z,32.77
2022-11-28T22:34:01.334Z,35.27
2022-11-28T22:36:28.897Z,35.47
2022-11-28T22:38:58.243Z,34.67
2022-11-28T22:41:29.334Z,36.63
2022-11-28T22:44:00.588Z,37.27
2022-11-28T22:46:29.097Z,39.53
2022-11-28T22:48:56.798Z,39.50
2022-11-28T22:51:26.118Z,38.07
2022-11-28T22:54:00.125Z,43.27
2022-11-28T22:56:28.471Z,42.37
2022-11-28T22:58:56.187Z,43.43
2022-11-28T23:01:30.319Z,40.07
2022-11-28T23:03:58.431Z,41.53
2022-11-28T23:06:31.274Z,38.13
2022-11-28T23:09:01.540Z,39.63
2022-11-28T23:11:34.007Z,38.77
2022-11-28T23:14:03.572Z,39.30
2022-11-28T23:16:40.270Z,40.90
2022-11-28T23:19:13.283Z,39.83
2022-11-28T23:21:44.529Z,41.33
2022-11-28T23:24:21.330Z,38.53
2022-11-28T23:26:50.173Z,36.30
2022-11-28T23:29:18.112Z,39.77
2022-11-28T23:31:47.395Z,37.30
2022-11-28T23:34:15.791Z,38.43
2022-11-28T23:36:46.820Z,36.87
2022-11-28T23:39:21.114Z,36.60
2022-11-28T23:41:49.992Z,38.73
2022-11-28T23:44:19.695Z,37.83
2022-11-28T23:46:48.371Z,37.93
2022-11-28T23:49:15.934Z,35.23
2022-11-28T23:51:43.678Z,39.30
2022-11-28T23:54:12.088Z,39.13
2022-11-28T23:56:41.117Z,35.10
2022-11-28T23:59:10.673Z,37.23
